createdAt,value
2023-11-24T05:34:47.968Z,76.62
2023-11-24T05:39:50.664Z,75.80
2023-11-24T05:44:53.338Z,76.34
2023-11-24T05:49:55.917Z,77.08
2023-11-24T05:54:59.612Z,74.70
2023-11-24T06:00:02.929Z,74.32
2023-11-24T06:05:25.510Z,75.08
2023-11-24T06:10:28.236Z,76.11
2023-11-24T06:15:30.809Z,76.58
2023-11-24T06:20:33.508Z,76.16
2023-11-24T06:25:36.081Z,79.66
2023-11-24T06:30:40.107Z,76.27
2023-11-24T06:35:43.935Z,77.71
2023-11-24T06:40:46.840Z,76.19
2023-11-24T06:45:49.499Z,75.49
2023-11-24T06:50:52.204Z,75.60
2023-11-24T06:55:54.825Z,76.14
2023-11-24T07:00:57.636Z,76.71
2023-11-24T07:06:01.579Z,75.75
2023-11-24T07:11:05.680Z,74.77
2023-11-24T07:16:08.839Z,74.02
2023-11-24T07:21:11.554Z,73.56
2023-11-24T07:26:23.254Z,76.23
2023-11-24T07:31:26.603Z,73.69
2023-11-24T07:36:29.259Z,74.34
2023-11-24T07:41:31.884Z,75.41
2023-11-24T07:46:34.609Z,73.53
2023-11-24T07:51:37.260Z,75.05
2023-11-24T07:56:40.046Z,75.04
2023-11-24T08:01:42.800Z,75.32
2023-11-24T08:06:46.686Z,74.96
2023-11-24T08:11:49.679Z,73.91
2023-11-24T08:16:52.623Z,74.28
2023-11-24T08:21:55.297Z,74.02
2023-11-24T08:26:58.392Z,74.26
2023-11-24T08:32:00.990Z,76.24
2023-11-24T08:37:04.012Z,74.62
2023-11-24T08:42:07.419Z,74.47
2023-11-24T08:53:37.335Z,73.99
2023-11-24T08:58:40.119Z,73.71
2023-11-24T09:03:42.875Z,73.18
2023-11-24T09:08:46.428Z,73.46
2023-11-24T09:13:57.753Z,73.71
2023-11-24T09:19:01.093Z,72.86
2023-11-24T09:24:04.219Z,73.12
2023-11-24T09:29:06.967Z,73.55
2023-11-24T09:34:09.664Z,71.98
2023-11-24T09:39:18.337Z,73.70
2023-11-24T09:44:21.263Z,70.81
2023-11-24T09:49:25.816Z,71.65
2023-11-24T09:54:28.543Z,73.00
2023-11-24T09:59:31.104Z,73.91
2023-11-24T10:04:33.822Z,73.43
2023-11-24T10:09:36.537Z,72.79
2023-11-24T10:14:44.476Z,72.41
2023-11-24T10:19:47.074Z,69.72
2023-11-24T10:24:49.695Z,69.75
2023-11-24T10:29:53.013Z,71.01
2023-11-24T10:34:55.678Z,70.79
2023-11-24T10:40:01.814Z,69.57
2023-11-24T10:45:07.425Z,71.42
2023-11-24T10:50:14.007Z,70.49
2023-11-24T10:55:16.960Z,68.73
2023-11-24T11:00:21.991Z,67.98
2023-11-24T11:05:35.676Z,70.39
2023-11-24T11:10:47.135Z,72.50
2023-11-24T11:15:52.291Z,68.52
2023-11-24T11:20:55.530Z,68.63
2023-11-24T11:25:59.603Z,70.61
2023-11-24T11:31:25.115Z,74.29
2023-11-24T11:36:29.588Z,70.51
2023-11-24T11:41:46.313Z,68.36
2023-11-24T11:47:12.006Z,68.86
2023-11-24T11:52:15.071Z,64.84
2023-11-24T11:57:18.129Z,65.13
2023-11-24T12:02:24.389Z,69.83
2023-11-24T12:07:27.737Z,67.47
2023-11-24T12:12:30.494Z,66.00
2023-11-24T12:17:33.276Z,66.45
2023-11-24T12:22:35.975Z,71.92
2023-11-24T12:27:38.648Z,68.43
2023-11-24T12:32:42.477Z,69.08
2023-11-24T12:37:47.626Z,71.27
2023-11-24T12:42:50.472Z,69.52
2023-11-24T12:47:53.231Z,70.71
2023-11-24T12:52:58.453Z,69.19
2023-11-24T12:58:00.993Z,69.37
2023-11-24T13:03:03.752Z,70.95
2023-11-24T13:08:06.905Z,69.76
2023-11-24T13:13:09.599Z,69.90
2023-11-24T13:18:12.259Z,72.23
2023-11-24T13:23:14.896Z,70.42
2023-11-24T13:28:17.478Z,72.58
2023-11-24T13:33:20.364Z,70.86
2023-11-24T13:38:23.071Z,72.61
2023-11-24T13:43:25.710Z,73.01
2023-11-24T13:48:30.321Z,72.81
2023-11-24T13:53:32.936Z,73.42
2023-11-24T13:58:35.546Z,73.90
2023-11-24T14:03:38.285Z,75.55
2023-11-24T14:08:41.020Z,76.08
2023-11-24T14:13:44.095Z,75.88
2023-11-24T14:18:46.731Z,76.56
2023-11-24T14:23:49.334Z,77.39
2023-11-24T14:28:51.896Z,76.59
2023-11-24T14:33:55.441Z,77.37
2023-11-24T14:38:58.589Z,76.99
2023-11-24T14:44:01.888Z,78.05
2023-11-24T14:49:05.301Z,79.46
2023-11-24T14:54:07.982Z,78.87
2023-11-24T14:59:10.717Z,79.49
2023-11-24T15:04:20.134Z,78.87
2023-11-24T15:09:26.428Z,78.89
2023-11-24T15:14:37.645Z,77.95
2023-11-24T15:19:40.589Z,78.38
2023-11-24T15:24:43.733Z,78.33
2023-11-24T15:29:46.546Z,77.70
2023-11-24T15:34:49.207Z,76.58
2023-11-24T15:39:58.328Z,77.05
2023-11-24T15:45:01.876Z,77.17
2023-11-24T15:50:09.922Z,76.01
2023-11-24T15:55:13.303Z,76.30
2023-11-24T16:00:30.208Z,76.82
2023-11-24T16:05:34.146Z,76.63
2023-11-24T16:10:44.555Z,77.93
2023-11-24T16:15:49.192Z,77.48
2023-11-24T16:20:51.825Z,77.35
2023-11-24T16:25:54.416Z,77.65
2023-11-24T16:30:57.410Z,78.06
2023-11-24T16:36:03.633Z,77.45
2023-11-24T16:41:06.309Z,77.63
2023-11-24T16:46:09.037Z,78.44
2023-11-24T16:51:11.855Z,78.67
2023-11-24T16:56:14.610Z,78.97
2023-11-24T17:01:17.292Z,79.10
2023-11-24T17:06:19.925Z,79.40
2023-11-24T17:11:22.511Z,79.62
2023-11-24T17:16:25.531Z,78.93
2023-11-24T17:21:28.354Z,78.99
2023-11-24T17:26:32.341Z,79.21
2023-11-24T17:31:34.948Z,79.11
2023-11-24T17:36:37.657Z,79.60
2023-11-24T17:41:41.118Z,79.38
2023-11-24T17:46:43.812Z,79.29
2023-11-24T17:51:46.745Z,79.92
2023-11-24T17:56:50.737Z,79.56
2023-11-24T18:01:53.433Z,80.07
2023-11-24T18:06:56.276Z,80.89
2023-11-24T18:11:58.888Z,80.90
2023-11-24T18:17:01.477Z,81.40
2023-11-24T18:22:04.516Z,81.70
2023-11-24T18:27:07.297Z,82.14
2023-11-24T18:32:10.836Z,81.68
2023-11-24T18:37:13.536Z,82.46
2023-11-24T18:42:16.196Z,83.28
2023-11-24T18:47:20.263Z,84.22
2023-11-24T18:52:24.087Z,85.42
2023-11-24T18:57:26.784Z,86.44
2023-11-24T19:02:29.487Z,87.25
2023-11-24T19:07:32.340Z,87.14
2023-11-24T19:12:35.002Z,87.63
2023-11-24T19:17:40.150Z,87.79
2023-11-24T19:22:42.782Z,88.13
2023-11-24T19:27:45.358Z,88.38
2023-11-24T19:32:48.206Z,88.73
2023-11-24T19:37:50.871Z,88.91
2023-11-24T19:42:53.662Z,89.32
2023-11-24T19:47:56.352Z,89.17
2023-11-24T19:52:59.609Z,89.50
2023-11-24T19:58:02.689Z,89.29
2023-11-24T20:03:05.500Z,89.39
2023-11-24T20:08:08.202Z,89.72
2023-11-24T20:13:10.860Z,90.03
2023-11-24T20:18:13.586Z,90.17
2023-11-24T20:23:16.240Z,90.44
2023-11-24T20:28:18.950Z,90.23
2023-11-24T20:33:21.654Z,90.51
2023-11-24T20:38:25.581Z,90.62
2023-11-24T20:43:28.990Z,91.08
2023-11-24T20:48:31.632Z,91.16
2023-11-24T20:53:34.383Z,91.36
2023-11-24T20:58:39.290Z,91.80
2023-11-24T21:03:42.468Z,91.92
2023-11-24T21:08:45.153Z,92.05
2023-11-24T21:13:47.905Z,92.02
2023-11-24T21:18:50.606Z,92.02
2023-11-24T21:23:53.221Z,92.26
2023-11-24T21:28:55.792Z,92.40
2023-11-24T21:33:58.630Z,92.17
2023-11-24T21:39:03.865Z,92.57
2023-11-24T21:44:07.898Z,92.55
2023-11-24T21:49:10.509Z,93.18
2023-11-24T21:54:13.598Z,92.63
2023-11-24T21:59:16.134Z,92.74
2023-11-24T22:04:18.841Z,92.92
